createdAt,value
2023-03-11T00:02:21.811Z,-7.71
2023-03-11T00:07:24.287Z,-7.26
2023-03-11T00:12:26.482Z,-7.47
2023-03-11T00:17:28.874Z,-7.88
2023-03-11T00:22:31.104Z,-7.97
2023-03-11T00:27:33.273Z,-7.64
2023-03-11T00:32:35.499Z,-7.60
2023-03-11T00:37:37.724Z,-7.89
2023-03-11T00:42:41.201Z,-7.12
2023-03-11T00:47:46.424Z,-9.11
2023-03-11T00:52:50.277Z,-7.11
2023-03-11T00:57:58.390Z,-7.73
2023-03-11T01:03:03.400Z,-8.04
2023-03-11T01:08:06.063Z,-8.09
2023-03-11T01:13:08.361Z,-7.22
2023-03-11T01:18:10.585Z,-7.97
2023-03-11T01:23:13.245Z,-7.38
2023-03-11T01:28:15.487Z,-8.15
2023-03-11T01:33:19.663Z,-7.33
2023-03-11T01:38:21.905Z,-7.36
2023-03-11T01:43:59.832Z,-7.12
2023-03-11T01:49:13.106Z,-7.58
2023-03-11T01:54:18.588Z,-7.79
2023-03-11T01:59:27.506Z,-7.22
2023-03-11T02:04:30.436Z,-7.16
2023-03-11T02:09:32.733Z,-7.27
2023-03-11T02:14:36.209Z,-7.32
2023-03-11T02:20:02.742Z,-7.28
2023-03-11T02:25:47.381Z,-7.29
2023-03-11T02:30:54.189Z,-8.68
2023-03-11T02:35:57.866Z,-7.92
2023-03-11T02:41:02.194Z,-7.72
2023-03-11T02:46:07.032Z,-7.50
2023-03-11T02:51:09.370Z,-7.25
2023-03-11T02:56:12.180Z,-8.08
2023-03-11T03:01:14.704Z,-7.41
2023-03-11T03:06:19.781Z,-8.06
2023-03-11T03:11:24.145Z,-7.34
2023-03-11T03:16:26.503Z,-6.98
2023-03-11T03:21:29.713Z,-7.16
2023-03-11T03:26:32.529Z,-8.16
2023-03-11T03:31:34.914Z,-6.94
2023-03-11T03:36:40.659Z,-7.10
2023-03-11T03:41:43.035Z,-7.51
2023-03-11T03:46:46.181Z,-6.81
2023-03-11T03:51:48.549Z,-7.53
2023-03-11T03:57:03.641Z,-6.73
2023-03-11T04:02:07.783Z,-6.84
2023-03-11T04:07:10.026Z,-7.20
2023-03-11T04:12:15.490Z,-6.81
2023-03-11T04:17:18.101Z,-7.47
2023-03-11T04:22:20.519Z,-6.89
2023-03-11T04:27:46.281Z,-6.76
2023-03-11T04:32:49.689Z,-7.03
2023-03-11T04:37:52.781Z,-6.46
2023-03-11T04:42:55.427Z,-6.45
2023-03-11T04:47:57.823Z,-6.41
2023-03-11T04:53:00.351Z,-6.39
2023-03-11T04:58:02.900Z,-6.47
2023-03-11T05:03:05.843Z,-6.43
2023-03-11T05:08:08.885Z,-6.70
2023-03-11T05:13:12.399Z,-6.39
2023-03-11T05:18:16.429Z,-6.23
2023-03-11T05:23:18.979Z,-6.52
2023-03-11T05:28:21.332Z,-6.65
2023-03-11T05:33:32.659Z,-6.85
2023-03-11T05:38:36.331Z,-6.34
2023-03-11T05:43:39.248Z,-6.06
2023-03-11T05:48:41.587Z,-6.26
2023-03-11T05:53:48.854Z,-6.05
2023-03-11T05:58:58.150Z,-6.15
2023-03-11T06:04:02.866Z,-5.97
2023-03-11T06:09:05.229Z,-6.31
2023-03-11T06:14:11.929Z,-6.41
2023-03-11T06:19:14.661Z,-5.84
2023-03-11T06:24:21.694Z,-5.81
2023-03-11T06:29:26.905Z,-5.98
2023-03-11T06:34:30.334Z,-6.49
2023-03-11T06:39:32.736Z,-6.22
2023-03-11T06:44:35.439Z,-6.15
2023-03-11T06:49:41.124Z,-6.05
2023-03-11T06:54:43.597Z,-5.89
2023-03-11T06:59:46.049Z,-5.84
2023-03-11T07:04:51.015Z,-5.73
2023-03-11T07:10:00.135Z,-6.35
2023-03-11T07:15:02.621Z,-5.85
2023-03-11T07:20:07.302Z,-5.72
2023-03-11T07:25:09.880Z,-6.01
2023-03-11T07:30:12.453Z,-5.91
2023-03-11T07:35:17.684Z,-6.33
2023-03-11T07:40:20.220Z,-5.63
2023-03-11T07:45:22.497Z,-5.88
2023-03-11T07:50:24.850Z,-5.56
2023-03-11T07:55:27.064Z,-6.00
2023-03-11T08:00:29.420Z,-6.19
2023-03-11T08:05:34.523Z,-5.66
2023-03-11T08:10:38.171Z,-5.29
2023-03-11T08:15:40.601Z,-5.22
2023-03-11T08:20:43.009Z,-5.51
2023-03-11T08:25:45.367Z,-5.97
2023-03-11T08:30:47.679Z,-5.11
2023-03-11T08:35:49.968Z,-4.98
2023-03-11T08:40:52.491Z,-4.98
2023-03-11T08:45:54.909Z,-5.69
2023-03-11T08:50:57.455Z,-5.33
2023-03-11T08:55:59.734Z,-4.84
2023-03-11T09:01:02.195Z,-4.81
2023-03-11T09:06:07.869Z,-5.03
2023-03-11T09:11:12.674Z,-4.85
2023-03-11T09:16:17.128Z,-4.61
2023-03-11T09:21:20.161Z,-4.78
2023-03-11T09:26:22.642Z,-5.01
2023-03-11T09:31:25.287Z,-4.61
2023-03-11T09:36:27.739Z,-4.58
2023-03-11T09:41:57.154Z,-4.57
2023-03-11T09:47:12.703Z,-4.62
2023-03-11T09:52:17.496Z,-4.86
2023-03-11T09:57:27.518Z,-4.74
2023-03-11T10:02:30.198Z,-4.72
2023-03-11T10:07:42.630Z,-5.50
2023-03-11T10:13:06.260Z,-4.70
2023-03-11T10:18:37.830Z,-4.73
2023-03-11T10:24:04.482Z,-4.69
2023-03-11T10:29:29.461Z,-4.61
2023-03-11T10:34:38.463Z,-4.60
2023-03-11T10:39:41.406Z,-4.57
2023-03-11T10:44:44.295Z,-4.59
2023-03-11T10:49:46.787Z,-4.72
2023-03-11T10:55:00.299Z,-4.48
2023-03-11T11:00:17.594Z,-4.49
2023-03-11T11:05:22.583Z,-4.49
2023-03-11T11:10:27.451Z,-4.48
2023-03-11T11:16:08.999Z,-4.45
2023-03-11T11:21:29.596Z,-4.59
2023-03-11T11:26:32.135Z,-4.79
2023-03-11T11:31:34.691Z,-4.45
2023-03-11T11:36:37.438Z,-4.40
2023-03-11T11:41:39.709Z,-4.39
2023-03-11T11:47:09.075Z,-4.59
2023-03-11T11:52:17.600Z,-4.33
2023-03-11T11:57:22.131Z,-4.57
2023-03-11T12:02:37.426Z,-4.30
2023-03-11T12:08:01.719Z,-4.24
2023-03-11T12:13:06.788Z,-4.28
2023-03-11T12:18:18.157Z,-4.70
2023-03-11T12:23:29.623Z,-4.48
2023-03-11T12:28:38.041Z,-4.24
2023-03-11T12:33:44.019Z,-4.22
2023-03-11T12:38:48.229Z,-4.23
2023-03-11T12:43:50.703Z,-4.18
2023-03-11T12:49:08.252Z,-4.13
2023-03-11T12:54:34.370Z,-4.10
2023-03-11T12:59:55.865Z,-4.09
2023-03-11T13:05:35.695Z,-4.08
2023-03-11T13:10:48.459Z,-4.63
2023-03-11T13:15:51.545Z,-4.16
2023-03-11T13:21:04.689Z,-4.50
2023-03-11T13:26:10.014Z,-4.07
2023-03-11T13:31:24.760Z,-4.08
2023-03-11T13:36:36.222Z,-4.08
2023-03-11T13:41:42.348Z,-4.43
2023-03-11T13:46:50.133Z,-4.08
2023-03-11T13:51:54.323Z,-4.08
2023-03-11T13:57:02.022Z,-4.07
2023-03-11T14:02:25.637Z,-4.00
2023-03-11T14:07:30.923Z,-4.36
2023-03-11T14:12:33.413Z,-4.18
2023-03-11T14:17:36.266Z,-4.41
2023-03-11T14:22:39.021Z,-4.25
2023-03-11T14:28:02.429Z,-3.94
2023-03-11T14:33:26.133Z,-3.97
2023-03-11T14:38:30.756Z,-4.00
2023-03-11T14:43:35.418Z,-4.41
2023-03-11T14:48:40.043Z,-3.88
2023-03-11T14:53:56.906Z,-3.83
2023-03-11T14:59:18.911Z,-3.96
2023-03-11T15:04:38.797Z,-4.00
2023-03-11T15:09:40.911Z,-3.70
2023-03-11T15:14:50.510Z,-4.11
2023-03-11T15:19:53.199Z,-4.06
2023-03-11T15:24:58.664Z,-3.73
2023-03-11T15:30:02.873Z,-3.71
2023-03-11T15:35:08.645Z,-3.68
2023-03-11T15:40:43.891Z,-3.94
2023-03-11T15:45:48.851Z,-3.72
2023-03-11T15:50:55.937Z,-3.64
2023-03-11T15:56:07.365Z,-4.01
2023-03-11T16:01:10.352Z,-3.58
2023-03-11T16:06:12.680Z,-3.55
2023-03-11T16:11:15.533Z,-3.51
2023-03-11T16:16:18.729Z,-3.49
2023-03-11T16:21:23.034Z,-4.00
2023-03-11T16:26:25.421Z,-3.42
2023-03-11T16:31:28.941Z,-3.40
2023-03-11T16:36:31.709Z,-6.73
2023-03-11T16:41:42.869Z,-3.33
2023-03-11T16:46:45.423Z,-3.33
2023-03-11T16:51:47.956Z,-4.14
2023-03-11T16:56:50.866Z,-3.51
2023-03-11T17:01:53.355Z,-3.25
2023-03-11T17:06:56.098Z,-3.99
2023-03-11T17:12:02.146Z,-3.35
2023-03-11T17:17:04.560Z,-3.54
2023-03-11T17:22:08.048Z,-3.16
2023-03-11T17:27:10.747Z,-3.12
2023-03-11T17:32:17.236Z,-3.20
2023-03-11T17:37:19.969Z,-3.04
2023-03-11T17:42:22.400Z,-3.03
2023-03-11T17:47:29.605Z,-3.03
2023-03-11T17:52:34.881Z,-3.24
2023-03-11T17:57:44.960Z,-2.97
2023-03-11T18:02:50.000Z,-3.68
2023-03-11T18:07:52.649Z,-2.88
2023-03-11T18:12:55.463Z,-3.28
2023-03-11T18:18:03.239Z,-3.50
2023-03-11T18:23:08.446Z,-3.08
2023-03-11T18:28:15.268Z,-2.75
2023-03-11T18:51:32.321Z,-3.08
2023-03-11T18:56:37.708Z,-3.32
2023-03-11T19:01:42.972Z,-2.89
2023-03-11T19:06:46.875Z,-3.45
2023-03-11T19:11:49.296Z,-3.31
2023-03-11T19:16:51.758Z,-2.54
2023-03-11T19:21:54.154Z,-2.68
2023-03-11T19:26:56.622Z,-3.11
2023-03-11T19:31:59.220Z,-2.33
2023-03-11T19:37:01.513Z,-3.88
2023-03-11T19:42:03.939Z,-2.25
2023-03-11T19:47:06.236Z,-2.33
2023-03-11T19:52:10.121Z,-2.30
2023-03-11T19:57:12.609Z,-2.04
2023-03-11T20:02:14.970Z,-1.98
2023-03-11T20:07:17.286Z,-1.93
2023-03-11T20:12:19.517Z,-1.89
2023-03-11T20:17:22.040Z,-1.83
2023-03-11T20:22:24.528Z,-1.79
2023-03-11T20:27:28.997Z,-1.74
2023-03-11T20:32:31.331Z,-1.96
2023-03-11T20:37:34.967Z,-1.64
2023-03-11T20:42:37.187Z,-2.10
2023-03-11T20:48:04.417Z,-1.53
2023-03-11T20:53:06.852Z,-1.90
2023-03-11T20:58:09.244Z,-1.51
2023-03-11T21:03:11.597Z,-2.47
2023-03-11T21:08:13.972Z,-1.78
2023-03-11T21:13:16.483Z,-1.75
2023-03-11T21:18:18.783Z,-1.52
2023-03-11T21:23:21.079Z,-1.45
2023-03-11T21:28:23.328Z,-1.66
2023-03-11T21:33:25.782Z,-1.27
2023-03-11T21:38:28.704Z,-1.61
2023-03-11T21:43:31.358Z,-1.31
2023-03-11T21:48:34.223Z,-1.16
2023-03-11T21:53:36.584Z,-1.39
2023-03-11T21:58:39.036Z,-1.31
2023-03-11T22:03:41.613Z,-1.67
2023-03-11T22:08:44.071Z,-1.04
2023-03-11T22:13:48.035Z,-0.98
2023-03-11T22:18:50.592Z,-0.94
2023-03-11T22:23:52.815Z,-1.08
2023-03-11T22:28:55.129Z,-1.09
2023-03-11T22:33:57.453Z,-0.93
2023-03-11T22:39:01.299Z,-0.90
2023-03-11T22:44:03.685Z,-1.30
2023-03-11T22:49:05.895Z,-1.48
2023-03-11T22:54:08.171Z,-0.82
2023-03-11T22:59:10.347Z,-0.74
2023-03-11T23:04:12.527Z,-0.62
2023-03-11T23:09:14.685Z,-1.34
2023-03-11T23:14:16.869Z,-0.70
2023-03-11T23:19:18.972Z,-0.80
2023-03-11T23:24:21.277Z,-0.48
2023-03-11T23:29:23.552Z,-0.59
2023-03-11T23:34:25.904Z,-0.52
2023-03-11T23:39:28.334Z,-0.38
2023-03-11T23:44:30.639Z,-0.33
2023-03-11T23:49:32.884Z,-0.37
2023-03-11T23:54:35.780Z,-0.28
2023-03-11T23:59:38.082Z,-0.23
